Time;durP1;ratioP1;P1;durP2;ratioP2;P2;SDS_P1;SDS_P2;PMS_P1;PMS_P2;Temp;Humidity;BMP_temperature;BMP_pressure;BME280_temperature;BME280_humidity;BME280_pressure;Samples;Min_cycle;Max_cycle;Signal;HPM_P1;HPM_P2
2024/01/15 00:01:22;;;;;;;;;;;;;;;;;;54196;1251;1056698;-80
2024/01/15 00:03:48;;;;;;;;;;;;;;;;;;54178;1251;1003538;-80
2024/01/15 00:06:15;;;;;;;;;;;;;;;;;;54214;1251;1057524;-80
2024/01/15 00:08:41;;;;;;;;;;;;;;;;;;53987;1251;1003430;-80
2024/01/15 00:11:08;;;;;;;;;;;;;;;;;;53526;1251;1039216;-80
2024/01/15 00:13:34;;;;;;;;;;;;;;;;;;54189;1253;1003178;-80
2024/01/15 00:16:01;;;;;;;;;;;;;;;;;;54111;1251;1045035;-80
2024/01/15 00:18:27;;;;;;;;;;;;;;;;;;52949;1253;1005308;-79
2024/01/15 00:20:54;;;;;;;;;;;;;;;;;;53406;1251;1060570;-80
2024/01/15 00:23:20;;;;;;;;;;;;;;;;;;54200;1251;1003070;-80
2024/01/15 00:25:47;;;;;;;;;;;;;;;;;;54194;1252;1057272;-80
2024/01/15 00:28:14;;;;;;;;;;;;;;;;;;54184;1254;1003342;-80
2024/01/15 00:30:40;;;;;;;;;;;;;;;;;;54206;1253;1058258;-80
2024/01/15 00:33:07;;;;;;;;;;;;;;;;;;54161;1253;1003436;-80
2024/01/15 00:35:33;;;;;;;;;;;;;;;;;;54187;1254;1038549;-80
2024/01/15 00:38:00;;;;;;;;;;;;;;;;;;53974;1254;1005174;-80
2024/01/15 00:40:26;;;;;;;;;;;;;;;;;;52967;1253;1045898;-80
2024/01/15 00:42:53;;;;;;;;;;;;;;;;;;52917;1253;1005586;-79
2024/01/15 00:45:19;;;;;;;;;;;;;;;;;;52946;1253;1060967;-80
2024/01/15 00:47:46;;;;;;;;;;;;;;;;;;52994;1253;1004728;-80
2024/01/15 00:50:13;;;;;;;;;;;;;;;;;;53115;1251;1057417;-80
2024/01/15 00:52:39;;;;;;;;;;;;;;;;;;54206;1252;1003078;-80
2024/01/15 00:55:06;;;;;;;;;;;;;;;;;;54188;1251;1058439;-80
2024/01/15 00:57:32;;;;;;;;;;;;;;;;;;54191;1251;1003278;-80
2024/01/15 00:59:59;;;;;;;;;;;;;;;;;;53300;1255;1038199;-80
2024/01/15 01:02:25;;;;;;;;;;;;;;;;;;52924;1255;1005170;-80
2024/01/15 01:04:52;;;;;;;;;;;;;;;;;;52947;1251;1046457;-80
2024/01/15 01:07:19;;;;;;;;;;;;;;;;;;53912;1251;1004815;-80
2024/01/15 01:09:47;;;;;;;;;;;;;;;;;;52902;1253;1060321;-80
2024/01/15 01:12:14;;;;;;;;;;;;;;;;;;53771;1251;1005990;-80
2024/01/15 01:14:40;;;;;;;;;;;;;;;;;;52939;1250;1005628;-80
2024/01/15 01:17:07;;;;;;;;;;;;;;;;;;52967;1251;1056862;-81
2024/01/15 01:19:33;;;;;;;;;;;;;;;;;;52959;1253;1004996;-80
2024/01/15 01:22:00;;;;;;;;;;;;;;;;;;52902;1251;1057419;-80
2024/01/15 01:24:27;;;;;;;;;;;;;;;;;;52956;1253;1006468;-80
2024/01/15 01:26:53;;;;;;;;;;;;;;;;;;52885;1255;1038619;-80
2024/01/15 01:29:20;;;;;;;;;;;;;;;;;;52898;1251;1005123;-80
2024/01/15 01:31:46;;;;;;;;;;;;;;;;;;53216;1253;1045923;-80
2024/01/15 01:34:13;;;;;;;;;;;;;;;;;;52962;1254;1005080;-80
2024/01/15 01:36:39;;;;;;;;;;;;;;;;;;52961;1251;1060928;-80
2024/01/15 01:39:06;;;;;;;;;;;;;;;;;;52995;1251;1005028;-80
2024/01/15 01:41:33;;;;;;;;;;;;;;;;;;52947;1253;1059989;-80
2024/01/15 01:43:59;;;;;;;;;;;;;;;;;;52911;1253;1005491;-80
2024/01/15 01:46:26;;;;;;;;;;;;;;;;;;52897;1251;1058756;-80
2024/01/15 01:48:52;;;;;;;;;;;;;;;;;;53791;1251;1003588;-80
2024/01/15 01:51:18;;;;;;;;;;;;;;;;;;54182;1252;1038786;-80
2024/01/15 01:53:45;;;;;;;;;;;;;;;;;;53117;1256;1005519;-80
2024/01/15 01:56:12;;;;;;;;;;;;;;;;;;53019;1251;1046039;-80
2024/01/15 01:58:38;;;;;;;;;;;;;;;;;;53193;1253;1005538;-80
2024/01/15 02:01:05;;;;;;;;;;;;;;;;;;53236;1251;1061216;-80
2024/01/15 02:03:31;;;;;;;;;;;;;;;;;;53240;1251;1005533;-80
2024/01/15 02:05:57;;;;;;;;;;;;;;;;;;52948;1254;1057220;-81
2024/01/15 02:08:24;;;;;;;;;;;;;;;;;;52935;1251;1005486;-81
2024/01/15 02:10:51;;;;;;;;;;;;;;;;;;53024;1256;1060942;-82
2024/01/15 02:13:17;;;;;;;;;;;;;;;;;;53076;1255;1003666;-81
2024/01/15 02:15:44;;;;;;;;;;;;;;;;;;53394;1255;1038059;-80
2024/01/15 02:18:10;;;;;;;;;;;;;;;;;;54177;1255;1003497;-80
2024/01/15 02:20:36;;;;;;;;;;;;;;;;;;53856;1252;1046086;-80
2024/01/15 02:23:03;;;;;;;;;;;;;;;;;;53009;1254;1005662;-80
2024/01/15 02:25:29;;;;;;;;;;;;;;;;;;52990;1253;1060215;-80
2024/01/15 02:27:56;;;;;;;;;;;;;;;;;;52960;1256;1005259;-80
2024/01/15 02:30:23;;;;;;;;;;;;;;;;;;53067;1253;1057124;-81
2024/01/15 02:32:49;;;;;;;;;;;;;;;;;;53415;1254;1003638;-81
2024/01/15 02:35:16;;;;;;;;;;;;;;;;;;53394;1251;1058827;-81
2024/01/15 02:37:42;;;;;;;;;;;;;;;;;;53532;1254;1005702;-80
2024/01/15 02:40:09;;;;;;;;;;;;;;;;;;53800;1254;1038722;-81
2024/01/15 02:42:35;;;;;;;;;;;;;;;;;;53011;1254;1005333;-80
2024/01/15 02:45:02;;;;;;;;;;;;;;;;;;53102;1251;1045156;-81
2024/01/15 02:47:29;;;;;;;;;;;;;;;;;;53078;1252;1005407;-80
2024/01/15 02:49:55;;;;;;;;;;;;;;;;;;52974;1251;1060420;-80
2024/01/15 02:52:22;;;;;;;;;;;;;;;;;;52924;1251;1005367;-80
2024/01/15 02:54:48;;;;;;;;;;;;;;;;;;52889;1252;1056036;-81
2024/01/15 02:57:15;;;;;;;;;;;;;;;;;;54181;1256;1003511;-80
2024/01/15 02:59:41;;;;;;;;;;;;;;;;;;54206;1251;1057448;-80
2024/01/15 03:02:08;;;;;;;;;;;;;;;;;;53470;1254;1003610;-80
2024/01/15 03:04:34;;;;;;;;;;;;;;;;;;52875;1254;1038125;-80
2024/01/15 03:07:01;;;;;;;;;;;;;;;;;;52945;1254;1005503;-80
2024/01/15 03:09:27;;;;;;;;;;;;;;;;;;53005;1254;1046563;-80
2024/01/15 03:11:54;;;;;;;;;;;;;;;;;;52930;1254;1005126;-81
2024/01/15 03:14:21;;;;;;;;;;;;;;;;;;52972;1254;1061118;-80
2024/01/15 03:16:47;;;;;;;;;;;;;;;;;;53822;1255;1005218;-80
2024/01/15 03:19:13;;;;;;;;;;;;;;;;;;53160;1251;1056445;-81
2024/01/15 03:21:40;;;;;;;;;;;;;;;;;;52925;1251;1004835;-80
2024/01/15 03:24:06;;;;;;;;;;;;;;;;;;52939;1254;1058678;-80
2024/01/15 03:26:33;;;;;;;;;;;;;;;;;;53005;1254;1003652;-80
2024/01/15 03:28:59;;;;;;;;;;;;;;;;;;52987;1254;1038390;-81
2024/01/15 03:31:26;;;;;;;;;;;;;;;;;;53845;1251;1003485;-81
2024/01/15 03:33:52;;;;;;;;;;;;;;;;;;54192;1251;1045551;-81
2024/01/15 03:36:19;;;;;;;;;;;;;;;;;;54202;1251;1003037;-81
2024/01/15 03:38:46;;;;;;;;;;;;;;;;;;53859;1251;1060241;-80
2024/01/15 03:41:13;;;;;;;;;;;;;;;;;;53724;1251;1005130;-81
2024/01/15 03:43:39;;;;;;;;;;;;;;;;;;54153;1254;1056693;-81
2024/01/15 03:46:06;;;;;;;;;;;;;;;;;;54203;1251;1003220;-81
2024/01/15 03:48:33;;;;;;;;;;;;;;;;;;53424;1251;1057457;-80
2024/01/15 03:50:59;;;;;;;;;;;;;;;;;;52927;1251;1005551;-80
2024/01/15 03:53:26;;;;;;;;;;;;;;;;;;52914;1253;1038907;-80
2024/01/15 03:55:52;;;;;;;;;;;;;;;;;;53118;1251;1005693;-81
2024/01/15 03:58:19;;;;;;;;;;;;;;;;;;53163;1251;1045694;-80
2024/01/15 04:00:45;;;;;;;;;;;;;;;;;;53613;1251;1005080;-80
2024/01/15 04:03:12;;;;;;;;;;;;;;;;;;54173;1254;1060107;-81
2024/01/15 04:05:38;;;;;;;;;;;;;;;;;;54233;1251;1003283;-81
2024/01/15 04:08:05;;;;;;;;;;;;;;;;;;54204;1251;1057349;-81
2024/01/15 04:10:31;;;;;;;;;;;;;;;;;;53925;1253;1004994;-81
2024/01/15 04:12:59;;;;;;;;;;;;;;;;;;53199;1251;1057888;-80
2024/01/15 04:15:26;;;;;;;;;;;;;;;;;;53142;1251;1006153;-81
2024/01/15 04:17:52;;;;;;;;;;;;;;;;;;52937;1254;1005270;-80
2024/01/15 04:20:19;;;;;;;;;;;;;;;;;;52919;1251;1038001;-80
2024/01/15 04:22:45;;;;;;;;;;;;;;;;;;52950;1251;1005538;-81
2024/01/15 04:25:12;;;;;;;;;;;;;;;;;;52916;1251;1046013;-80
2024/01/15 04:27:38;;;;;;;;;;;;;;;;;;52909;1251;1005137;-81
2024/01/15 04:30:05;;;;;;;;;;;;;;;;;;52923;1251;1060566;-81
2024/01/15 04:32:31;;;;;;;;;;;;;;;;;;53028;1251;1004844;-80
2024/01/15 04:34:58;;;;;;;;;;;;;;;;;;53135;1251;1057088;-80
2024/01/15 04:37:24;;;;;;;;;;;;;;;;;;54201;1251;1003328;-80
2024/01/15 04:39:53;;;;;;;;;;;;;;;;;;53987;1251;1058734;-80
2024/01/15 04:42:19;;;;;;;;;;;;;;;;;;52991;1251;1005416;-80
2024/01/15 04:44:46;;;;;;;;;;;;;;;;;;52927;1251;1004812;-81
2024/01/15 04:47:12;;;;;;;;;;;;;;;;;;52903;1251;1038463;-80
2024/01/15 04:49:39;;;;;;;;;;;;;;;;;;53217;1251;1004813;-81
2024/01/15 04:52:05;;;;;;;;;;;;;;;;;;52959;1251;1045649;-80
2024/01/15 04:54:32;;;;;;;;;;;;;;;;;;52966;1251;1005439;-80
2024/01/15 04:56:58;;;;;;;;;;;;;;;;;;54163;1251;1060136;-80
2024/01/15 04:59:25;;;;;;;;;;;;;;;;;;54222;1251;1003925;-81
2024/01/15 05:01:51;;;;;;;;;;;;;;;;;;54164;1251;1057093;-81
2024/01/15 05:04:18;;;;;;;;;;;;;;;;;;54227;1251;1003181;-81
2024/01/15 05:06:44;;;;;;;;;;;;;;;;;;54162;1254;1058447;-81
2024/01/15 05:09:11;;;;;;;;;;;;;;;;;;53658;1251;1003934;-80
2024/01/15 05:11:39;;;;;;;;;;;;;;;;;;52980;1251;1037955;-81
2024/01/15 05:14:06;;;;;;;;;;;;;;;;;;53537;1251;1004801;-81
2024/01/15 05:16:32;;;;;;;;;;;;;;;;;;54198;1251;1046132;-80
2024/01/15 05:18:59;;;;;;;;;;;;;;;;;;53221;1251;1005138;-81
2024/01/15 05:21:25;;;;;;;;;;;;;;;;;;53919;1251;1062480;-81
2024/01/15 05:23:52;;;;;;;;;;;;;;;;;;54144;1251;1003830;-80
2024/01/15 05:26:18;;;;;;;;;;;;;;;;;;52914;1251;1056055;-80
2024/01/15 05:28:45;;;;;;;;;;;;;;;;;;53361;1251;1005510;-80
2024/01/15 05:31:11;;;;;;;;;;;;;;;;;;53403;1251;1058170;-80
2024/01/15 05:33:38;;;;;;;;;;;;;;;;;;52918;1251;1004724;-80
2024/01/15 05:36:04;;;;;;;;;;;;;;;;;;52902;1252;1039290;-80
2024/01/15 05:38:31;;;;;;;;;;;;;;;;;;53238;1251;1004869;-81
2024/01/15 05:40:57;;;;;;;;;;;;;;;;;;53408;1251;1045656;-80
2024/01/15 05:43:24;;;;;;;;;;;;;;;;;;52997;1251;1004978;-80
2024/01/15 05:45:50;;;;;;;;;;;;;;;;;;52907;1251;1060494;-80
2024/01/15 05:48:17;;;;;;;;;;;;;;;;;;52944;1251;1005573;-81
2024/01/15 05:50:43;;;;;;;;;;;;;;;;;;52968;1251;1056807;-81
2024/01/15 05:53:10;;;;;;;;;;;;;;;;;;52946;1251;1005089;-80
2024/01/15 05:55:38;;;;;;;;;;;;;;;;;;52889;1254;1058721;-80
2024/01/15 05:58:05;;;;;;;;;;;;;;;;;;52940;1251;1005435;-81
2024/01/15 06:00:33;;;;;;;;;;;;;;;;;;53250;1251;1038388;-80
2024/01/15 06:02:59;;;;;;;;;;;;;;;;;;52941;1254;1005371;-81
2024/01/15 06:05:26;;;;;;;;;;;;;;;;;;54205;1251;1045090;-80
2024/01/15 06:07:53;;;;;;;;;;;;;;;;;;54168;1251;1003461;-81
2024/01/15 06:10:19;;;;;;;;;;;;;;;;;;54181;1251;1060058;-80
2024/01/15 06:12:46;;;;;;;;;;;;;;;;;;54175;1251;1003413;-80
2024/01/15 06:15:12;;;;;;;;;;;;;;;;;;54191;1251;1057047;-80
2024/01/15 06:17:39;;;;;;;;;;;;;;;;;;54235;1253;1003449;-80
2024/01/15 06:20:05;;;;;;;;;;;;;;;;;;54130;1253;1058269;-80
2024/01/15 06:22:32;;;;;;;;;;;;;;;;;;54183;1250;1003157;-81
2024/01/15 06:24:58;;;;;;;;;;;;;;;;;;54136;1251;1038757;-80
2024/01/15 06:27:25;;;;;;;;;;;;;;;;;;54179;1251;1003402;-81
2024/01/15 06:29:52;;;;;;;;;;;;;;;;;;54182;1251;1046349;-81
2024/01/15 06:32:19;;;;;;;;;;;;;;;;;;54213;1250;1003300;-80
2024/01/15 06:34:45;;;;;;;;;;;;;;;;;;54033;1251;1186790;-81
2024/01/15 06:37:12;;;;;;;;;;;;;;;;;;54181;1250;1003161;-81
2024/01/15 06:39:38;;;;;;;;;;;;;;;;;;53804;1251;1057967;-81
2024/01/15 06:42:05;;;;;;;;;;;;;;;;;;54170;1251;1003246;-81
2024/01/15 06:44:31;;;;;;;;;;;;;;;;;;54151;1251;1058313;-81
2024/01/15 06:47:02;;;;;;;;;;;;;;;;;;54161;1251;1003391;-81
2024/01/15 06:49:29;;;;;;;;;;;;;;;;;;53376;1251;1038536;-81
2024/01/15 06:51:55;;;;;;;;;;;;;;;;;;53304;1250;1004888;-81
2024/01/15 06:54:23;;;;;;;;;;;;;;;;;;53256;1252;1046044;-81
2024/01/15 06:56:50;;;;;;;;;;;;;;;;;;53028;1251;1005540;-81
2024/01/15 06:59:17;;;;;;;;;;;;;;;;;;53021;1253;1060373;-81
2024/01/15 07:01:43;;;;;;;;;;;;;;;;;;53340;1252;1005126;-81
2024/01/15 07:04:10;;;;;;;;;;;;;;;;;;53395;1254;1056496;-80
2024/01/15 07:06:36;;;;;;;;;;;;;;;;;;53237;1251;1004728;-81
2024/01/15 07:09:03;;;;;;;;;;;;;;;;;;53260;1253;1057782;-81
2024/01/15 07:11:29;;;;;;;;;;;;;;;;;;53448;1251;1005255;-81
2024/01/15 07:13:56;;;;;;;;;;;;;;;;;;53432;1254;1038773;-81
2024/01/15 07:16:22;;;;;;;;;;;;;;;;;;53299;1253;1004846;-81
2024/01/15 07:18:49;;;;;;;;;;;;;;;;;;53355;1251;1046509;-81
2024/01/15 07:21:15;;;;;;;;;;;;;;;;;;53401;1254;1005452;-81
2024/01/15 07:23:42;;;;;;;;;;;;;;;;;;53464;1251;1060454;-81
2024/01/15 07:26:09;;;;;;;;;;;;;;;;;;53293;1253;1003632;-81
2024/01/15 07:28:36;;;;;;;;;;;;;;;;;;53332;1252;1056734;-81
2024/01/15 07:31:03;;;;;;;;;;;;;;;;;;53217;1251;1005580;-81
2024/01/15 07:33:30;;;;;;;;;;;;;;;;;;53475;1251;1059065;-81
2024/01/15 07:35:56;;;;;;;;;;;;;;;;;;53250;1251;1005480;-80
2024/01/15 07:38:23;;;;;;;;;;;;;;;;;;53306;1251;1037921;-81
2024/01/15 07:40:49;;;;;;;;;;;;;;;;;;53326;1251;1005921;-81
2024/01/15 07:43:16;;;;;;;;;;;;;;;;;;53418;1252;1046556;-81
2024/01/15 07:45:42;;;;;;;;;;;;;;;;;;53328;1251;1005504;-81
2024/01/15 07:48:09;;;;;;;;;;;;;;;;;;53270;1250;1061070;-81
2024/01/15 07:50:36;;;;;;;;;;;;;;;;;;53396;1251;1005369;-81
2024/01/15 07:53:02;;;;;;;;;;;;;;;;;;53297;1249;1056692;-81
2024/01/15 07:55:29;;;;;;;;;;;;;;;;;;53211;1251;1005912;-82
2024/01/15 07:57:58;;;;;;;;;;;;;;;;;;53358;1251;1058444;-81
2024/01/15 08:00:25;;;;;;;;;;;;;;;;;;53555;1251;1003444;-81
2024/01/15 08:02:53;;;;;;;;;;;;;;;;;;53522;1251;1005096;-81
2024/01/15 08:05:20;;;;;;;;;;;;;;;;;;53540;1251;1038854;-82
2024/01/15 08:07:47;;;;;;;;;;;;;;;;;;53496;1251;1005503;-81
2024/01/15 08:10:13;;;;;;;;;;;;;;;;;;53535;1250;1044859;-82
2024/01/15 08:12:40;;;;;;;;;;;;;;;;;;53632;1250;1005238;-81
2024/01/15 08:15:07;;;;;;;;;;;;;;;;;;53401;1251;1061047;-81
2024/01/15 08:17:34;;;;;;;;;;;;;;;;;;53398;1256;1005828;-82
2024/01/15 08:20:01;;;;;;;;;;;;;;;;;;53355;1249;1056765;-82
2024/01/15 08:22:27;;;;;;;;;;;;;;;;;;53569;1251;1005371;-81
2024/01/15 08:24:55;;;;;;;;;;;;;;;;;;53574;1251;1058149;-81
2024/01/15 08:27:21;;;;;;;;;;;;;;;;;;53661;1250;1005797;-81
2024/01/15 08:29:48;;;;;;;;;;;;;;;;;;53630;1250;1038056;-81
2024/01/15 08:32:15;;;;;;;;;;;;;;;;;;53542;1253;1003881;-81
2024/01/15 08:34:42;;;;;;;;;;;;;;;;;;53679;1253;1046630;-81
2024/01/15 08:37:09;;;;;;;;;;;;;;;;;;53558;1251;1005992;-81
2024/01/15 08:39:38;;;;;;;;;;;;;;;;;;53543;1251;1061134;-81
2024/01/15 08:42:04;;;;;;;;;;;;;;;;;;53340;1251;1005023;-81
2024/01/15 08:44:31;;;;;;;;;;;;;;;;;;53390;1251;1005581;-81
2024/01/15 08:46:57;;;;;;;;;;;;;;;;;;53440;1252;1056319;-81
2024/01/15 08:49:24;;;;;;;;;;;;;;;;;;53886;1250;1003391;-81
2024/01/15 08:51:50;;;;;;;;;;;;;;;;;;54104;1251;1058334;-81
2024/01/15 08:54:18;;;;;;;;;;;;;;;;;;54113;1252;1003109;-81
2024/01/15 08:56:44;;;;;;;;;;;;;;;;;;54147;1251;1038175;-81
2024/01/15 08:59:11;;;;;;;;;;;;;;;;;;54143;1251;1003460;-81
2024/01/15 09:01:37;;;;;;;;;;;;;;;;;;54152;1251;1046146;-81
2024/01/15 09:04:04;;;;;;;;;;;;;;;;;;54160;1250;1003267;-81
2024/01/15 09:06:30;;;;;;;;;;;;;;;;;;54155;1250;1059801;-81
2024/01/15 09:08:57;;;;;;;;;;;;;;;;;;54236;1250;1003260;-81
2024/01/15 09:11:24;;;;;;;;;;;;;;;;;;53637;1253;1056492;-81
2024/01/15 09:13:51;;;;;;;;;;;;;;;;;;53474;1251;1005234;-81
2024/01/15 09:16:18;;;;;;;;;;;;;;;;;;53458;1251;1058514;-81
2024/01/15 09:18:46;;;;;;;;;;;;;;;;;;53473;1251;1005595;-81
2024/01/15 09:21:13;;;;;;;;;;;;;;;;;;53405;1251;1038486;-81
2024/01/15 09:23:39;;;;;;;;;;;;;;;;;;53434;1251;1003387;-81
2024/01/15 09:26:06;;;;;;;;;;;;;;;;;;53434;1251;1046678;-81
2024/01/15 09:28:32;;;;;;;;;;;;;;;;;;53398;1250;1003581;-82
2024/01/15 09:30:59;;;;;;;;;;;;;;;;;;53925;1250;1060024;-81
2024/01/15 09:33:25;;;;;;;;;;;;;;;;;;54132;1251;1003277;-81
2024/01/15 09:35:52;;;;;;;;;;;;;;;;;;54157;1251;1056812;-81
2024/01/15 09:38:19;;;;;;;;;;;;;;;;;;54126;1251;1003117;-81
2024/01/15 09:40:46;;;;;;;;;;;;;;;;;;54147;1251;1057078;-81
2024/01/15 09:43:13;;;;;;;;;;;;;;;;;;54153;1254;1003324;-81
2024/01/15 09:45:39;;;;;;;;;;;;;;;;;;54133;1253;1038318;-81
2024/01/15 09:48:06;;;;;;;;;;;;;;;;;;54182;1251;1003492;-81
2024/01/15 09:50:32;;;;;;;;;;;;;;;;;;54176;1254;1046019;-81
2024/01/15 09:52:59;;;;;;;;;;;;;;;;;;54181;1250;1003454;-81
2024/01/15 09:55:26;;;;;;;;;;;;;;;;;;54149;1251;1060478;-81
2024/01/15 09:57:52;;;;;;;;;;;;;;;;;;54155;1251;1003294;-81
2024/01/15 10:00:19;;;;;;;;;;;;;;;;;;54142;1251;1056461;-81
2024/01/15 10:02:46;;;;;;;;;;;;;;;;;;54167;1251;1003236;-81
2024/01/15 10:05:12;;;;;;;;;;;;;;;;;;54169;1251;1058527;-81
2024/01/15 10:07:39;;;;;;;;;;;;;;;;;;54147;1250;1003301;-81
2024/01/15 10:10:07;;;;;;;;;;;;;;;;;;54162;1251;1039312;-81
2024/01/15 10:12:34;;;;;;;;;;;;;;;;;;54180;1251;1003466;-81
2024/01/15 10:15:00;;;;;;;;;;;;;;;;;;54156;1252;1045309;-81
2024/01/15 10:17:27;;;;;;;;;;;;;;;;;;54122;1251;1003218;-81
2024/01/15 10:19:54;;;;;;;;;;;;;;;;;;54148;1251;1060392;-81
2024/01/15 10:22:20;;;;;;;;;;;;;;;;;;54190;1251;1003203;-81
2024/01/15 10:24:47;;;;;;;;;;;;;;;;;;54137;1251;1056393;-81
2024/01/15 10:27:13;;;;;;;;;;;;;;;;;;54172;1251;1003420;-81
2024/01/15 10:29:40;;;;;;;;;;;;;;;;;;54120;1252;1057229;-81
2024/01/15 10:32:07;;;;;;;;;;;;;;;;;;54146;1251;1003269;-81
2024/01/15 10:34:33;;;;;;;;;;;;;;;;;;54109;1254;1038224;-82
2024/01/15 10:37:00;;;;;;;;;;;;;;;;;;54113;1251;1003416;-81
2024/01/15 10:39:26;;;;;;;;;;;;;;;;;;54216;1249;1045750;-81
2024/01/15 10:41:53;;;;;;;;;;;;;;;;;;54165;1251;1003324;-81
2024/01/15 10:44:19;;;;;;;;;;;;;;;;;;54114;1252;1060377;-81
2024/01/15 10:46:47;;;;;;;;;;;;;;;;;;54202;1251;1003204;-81
2024/01/15 10:49:13;;;;;;;;;;;;;;;;;;54181;1250;1057107;-81
2024/01/15 10:51:40;;;;;;;;;;;;;;;;;;54172;1250;1003662;-81
2024/01/15 10:54:06;;;;;;;;;;;;;;;;;;54123;1254;1058844;-81
2024/01/15 10:56:33;;;;;;;;;;;;;;;;;;53818;1250;1003506;-81
2024/01/15 10:58:59;;;;;;;;;;;;;;;;;;53716;1253;1038462;-81
2024/01/15 11:01:26;;;;;;;;;;;;;;;;;;53335;1251;1005484;-81
2024/01/15 11:03:53;;;;;;;;;;;;;;;;;;53289;1251;1044921;-81
2024/01/15 11:06:22;;;;;;;;;;;;;;;;;;53377;1249;1004945;-81
2024/01/15 11:08:49;;;;;;;;;;;;;;;;;;53248;1252;1060347;-81
2024/01/15 11:11:16;;;;;;;;;;;;;;;;;;53282;1250;1005539;-81
2024/01/15 11:13:44;;;;;;;;;;;;;;;;;;53431;1251;1056922;-81
2024/01/15 11:16:10;;;;;;;;;;;;;;;;;;53311;1251;1004822;-81
2024/01/15 11:18:37;;;;;;;;;;;;;;;;;;53345;1251;1058275;-81
2024/01/15 11:21:03;;;;;;;;;;;;;;;;;;53261;1251;1003624;-81
2024/01/15 11:23:30;;;;;;;;;;;;;;;;;;53289;1251;1040797;-81
2024/01/15 11:25:57;;;;;;;;;;;;;;;;;;53277;1251;1005489;-81
2024/01/15 11:28:23;;;;;;;;;;;;;;;;;;53326;1251;1046226;-81
2024/01/15 11:30:50;;;;;;;;;;;;;;;;;;53257;1249;1005415;-81
2024/01/15 11:33:16;;;;;;;;;;;;;;;;;;53361;1251;1060524;-81
2024/01/15 11:35:43;;;;;;;;;;;;;;;;;;53223;1251;1003555;-80
2024/01/15 11:38:10;;;;;;;;;;;;;;;;;;53173;1251;1056830;-81
2024/01/15 11:40:42;;;;;;;;;;;;;;;;;;53269;1250;1005993;-81
2024/01/15 11:43:09;;;;;;;;;;;;;;;;;;53303;1251;1057892;-81
2024/01/15 11:45:35;;;;;;;;;;;;;;;;;;53383;1253;1005333;-81
2024/01/15 11:48:02;;;;;;;;;;;;;;;;;;53362;1250;1038648;-80
2024/01/15 11:50:28;;;;;;;;;;;;;;;;;;53362;1250;1005008;-81
2024/01/15 11:52:55;;;;;;;;;;;;;;;;;;53323;1251;1045958;-81
2024/01/15 11:55:21;;;;;;;;;;;;;;;;;;53303;1253;1005212;-81
2024/01/15 11:57:48;;;;;;;;;;;;;;;;;;53377;1251;1060390;-81
2024/01/15 12:00:15;;;;;;;;;;;;;;;;;;53388;1251;1005589;-80
2024/01/15 12:02:41;;;;;;;;;;;;;;;;;;53349;1251;1056850;-80
2024/01/15 12:05:08;;;;;;;;;;;;;;;;;;53325;1251;1005519;-81
2024/01/15 12:07:35;;;;;;;;;;;;;;;;;;53372;1253;1057462;-81
2024/01/15 12:10:01;;;;;;;;;;;;;;;;;;53330;1251;1005096;-81
2024/01/15 12:12:28;;;;;;;;;;;;;;;;;;53330;1250;1038174;-81
2024/01/15 12:14:54;;;;;;;;;;;;;;;;;;53324;1253;1005298;-81
2024/01/15 12:17:21;;;;;;;;;;;;;;;;;;53358;1251;1046211;-81
2024/01/15 12:19:47;;;;;;;;;;;;;;;;;;53345;1251;1005899;-81
2024/01/15 12:22:15;;;;;;;;;;;;;;;;;;53364;1251;1060231;-81
2024/01/15 12:24:41;;;;;;;;;;;;;;;;;;53281;1251;1005387;-81
2024/01/15 12:27:08;;;;;;;;;;;;;;;;;;53352;1251;1057065;-81
2024/01/15 12:29:34;;;;;;;;;;;;;;;;;;53348;1250;1003540;-82
2024/01/15 12:32:01;;;;;;;;;;;;;;;;;;53357;1251;1059538;-81
2024/01/15 12:34:27;;;;;;;;;;;;;;;;;;53430;1251;1005459;-81
2024/01/15 12:36:55;;;;;;;;;;;;;;;;;;53049;1253;1038214;-80
2024/01/15 12:39:21;;;;;;;;;;;;;;;;;;53341;1254;1005355;-81
2024/01/15 12:41:48;;;;;;;;;;;;;;;;;;53402;1251;1045339;-81
2024/01/15 12:44:14;;;;;;;;;;;;;;;;;;53019;1251;1005650;-81
2024/01/15 12:46:41;;;;;;;;;;;;;;;;;;53236;1250;1059935;-81
2024/01/15 12:49:07;;;;;;;;;;;;;;;;;;53310;1251;1005232;-81
2024/01/15 12:51:34;;;;;;;;;;;;;;;;;;53345;1251;1058311;-81
2024/01/15 12:54:00;;;;;;;;;;;;;;;;;;53253;1250;1005686;-81
2024/01/15 12:56:27;;;;;;;;;;;;;;;;;;53287;1251;1059309;-81
2024/01/15 12:58:53;;;;;;;;;;;;;;;;;;53313;1253;1005625;-81
2024/01/15 13:01:20;;;;;;;;;;;;;;;;;;53407;1256;1038632;-81
2024/01/15 13:03:47;;;;;;;;;;;;;;;;;;53481;1255;1003725;-81
2024/01/15 13:06:14;;;;;;;;;;;;;;;;;;53381;1251;1045868;-82
2024/01/15 13:08:40;;;;;;;;;;;;;;;;;;53482;1251;1003857;-81
2024/01/15 13:11:07;;;;;;;;;;;;;;;;;;53401;1251;1059917;-81
2024/01/15 13:13:34;;;;;;;;;;;;;;;;;;53473;1253;1003623;-81
2024/01/15 13:16:00;;;;;;;;;;;;;;;;;;53410;1251;1057928;-81
2024/01/15 13:18:27;;;;;;;;;;;;;;;;;;53274;1251;1004609;-81
2024/01/15 13:20:54;;;;;;;;;;;;;;;;;;53111;1254;1057994;-81
2024/01/15 13:23:20;;;;;;;;;;;;;;;;;;53293;1253;1005149;-81
2024/01/15 13:25:46;;;;;;;;;;;;;;;;;;53227;1253;1039370;-81
2024/01/15 13:28:13;;;;;;;;;;;;;;;;;;53188;1251;1005120;-81
2024/01/15 13:30:40;;;;;;;;;;;;;;;;;;53273;1250;1045016;-81
2024/01/15 13:33:06;;;;;;;;;;;;;;;;;;53338;1252;1006051;-81
2024/01/15 13:35:33;;;;;;;;;;;;;;;;;;53363;1250;1060312;-81
2024/01/15 13:37:59;;;;;;;;;;;;;;;;;;53260;1251;1005475;-81
2024/01/15 13:40:26;;;;;;;;;;;;;;;;;;53362;1250;1056147;-81
2024/01/15 13:42:54;;;;;;;;;;;;;;;;;;53038;1250;1005122;-81
2024/01/15 13:45:20;;;;;;;;;;;;;;;;;;53341;1253;1057970;-81
2024/01/15 13:47:47;;;;;;;;;;;;;;;;;;53232;1250;1005902;-81
2024/01/15 13:50:14;;;;;;;;;;;;;;;;;;53152;1250;1038537;-82
2024/01/15 13:52:41;;;;;;;;;;;;;;;;;;53309;1251;1003761;-81
2024/01/15 13:55:08;;;;;;;;;;;;;;;;;;53367;1251;1045313;-81
2024/01/15 13:57:35;;;;;;;;;;;;;;;;;;53269;1253;1005177;-82
2024/01/15 14:00:02;;;;;;;;;;;;;;;;;;53207;1251;1060649;-81
2024/01/15 14:02:29;;;;;;;;;;;;;;;;;;53260;1250;1003914;-81
2024/01/15 14:04:55;;;;;;;;;;;;;;;;;;53313;1253;1058233;-81
2024/01/15 14:07:22;;;;;;;;;;;;;;;;;;53220;1251;1003661;-81
2024/01/15 14:09:48;;;;;;;;;;;;;;;;;;53267;1253;1058380;-81
2024/01/15 14:12:15;;;;;;;;;;;;;;;;;;53339;1251;1005261;-81
2024/01/15 14:14:42;;;;;;;;;;;;;;;;;;53460;1253;1038884;-81
2024/01/15 14:17:08;;;;;;;;;;;;;;;;;;53429;1252;1005046;-81
2024/01/15 14:19:35;;;;;;;;;;;;;;;;;;53577;1251;1045760;-81
2024/01/15 14:22:01;;;;;;;;;;;;;;;;;;53599;1251;1003661;-82
2024/01/15 14:24:28;;;;;;;;;;;;;;;;;;53766;1251;1060079;-82
2024/01/15 14:26:54;;;;;;;;;;;;;;;;;;54075;1255;1003323;-81
2024/01/15 14:29:24;;;;;;;;;;;;;;;;;;53653;1251;1056380;-81
2024/01/15 14:31:51;;;;;;;;;;;;;;;;;;53382;1253;1003650;-81
2024/01/15 14:34:18;;;;;;;;;;;;;;;;;;53598;1251;1005351;-81
2024/01/15 14:36:45;;;;;;;;;;;;;;;;;;53462;1255;1057324;-80
2024/01/15 14:39:12;;;;;;;;;;;;;;;;;;53011;1251;1005298;-80
2024/01/15 14:41:39;;;;;;;;;;;;;;;;;;53009;1253;1039306;-80
2024/01/15 14:44:05;;;;;;;;;;;;;;;;;;53062;1255;1005961;-80
2024/01/15 14:46:32;;;;;;;;;;;;;;;;;;53058;1252;1045805;-80
2024/01/15 14:48:58;;;;;;;;;;;;;;;;;;52984;1252;1006114;-80
2024/01/15 14:51:25;;;;;;;;;;;;;;;;;;52956;1251;1059710;-81
2024/01/15 14:53:51;;;;;;;;;;;;;;;;;;53159;1253;1005558;-80
2024/01/15 14:56:18;;;;;;;;;;;;;;;;;;52985;1253;1056843;-80
2024/01/15 14:58:44;;;;;;;;;;;;;;;;;;52945;1251;1005550;-80
2024/01/15 15:01:11;;;;;;;;;;;;;;;;;;53086;1253;1058370;-80
2024/01/15 15:03:38;;;;;;;;;;;;;;;;;;52992;1253;1006119;-80
2024/01/15 15:06:04;;;;;;;;;;;;;;;;;;53011;1255;1038279;-79
2024/01/15 15:08:31;;;;;;;;;;;;;;;;;;52968;1254;1005231;-80
2024/01/15 15:10:57;;;;;;;;;;;;;;;;;;52938;1251;1046121;-80
2024/01/15 15:13:25;;;;;;;;;;;;;;;;;;53044;1253;1005170;-80
2024/01/15 15:15:53;;;;;;;;;;;;;;;;;;52911;1255;1059884;-79
2024/01/15 15:18:21;;;;;;;;;;;;;;;;;;52861;1251;1005390;-80
2024/01/15 15:20:48;;;;;;;;;;;;;;;;;;52826;1253;1056509;-80
2024/01/15 15:23:14;;;;;;;;;;;;;;;;;;52952;1255;1005256;-80
2024/01/15 15:25:42;;;;;;;;;;;;;;;;;;52842;1251;1057963;-80
2024/01/15 15:28:11;;;;;;;;;;;;;;;;;;52857;1255;1003720;-80
2024/01/15 15:30:37;;;;;;;;;;;;;;;;;;52759;1252;1005732;-80
2024/01/15 15:33:05;;;;;;;;;;;;;;;;;;52874;1253;1005183;-80
2024/01/15 15:35:31;;;;;;;;;;;;;;;;;;52866;1253;1038827;-79
2024/01/15 15:37:58;;;;;;;;;;;;;;;;;;52852;1252;1004629;-80
2024/01/15 15:40:24;;;;;;;;;;;;;;;;;;52852;1256;1044966;-80
2024/01/15 15:42:51;;;;;;;;;;;;;;;;;;52814;1253;1005942;-80
2024/01/15 15:45:17;;;;;;;;;;;;;;;;;;52958;1252;1060698;-80
2024/01/15 15:47:44;;;;;;;;;;;;;;;;;;52834;1253;1004767;-80
2024/01/15 15:50:11;;;;;;;;;;;;;;;;;;52802;1253;1057100;-80
2024/01/15 15:52:37;;;;;;;;;;;;;;;;;;52807;1253;1005332;-80
2024/01/15 15:55:04;;;;;;;;;;;;;;;;;;52758;1253;1058761;-80
2024/01/15 15:57:31;;;;;;;;;;;;;;;;;;52876;1254;1005487;-81
2024/01/15 15:59:58;;;;;;;;;;;;;;;;;;52886;1253;1038316;-80
2024/01/15 16:02:24;;;;;;;;;;;;;;;;;;52816;1253;1005303;-80
2024/01/15 16:04:51;;;;;;;;;;;;;;;;;;52878;1253;1045223;-80
2024/01/15 16:07:17;;;;;;;;;;;;;;;;;;52824;1253;1005132;-80